Time;durP1;ratioP1;P1;durP2;ratioP2;P2;SDS_P1;SDS_P2;PMS_P1;PMS_P2;Temp;Humidity;BMP_temperature;BMP_pressure;BME280_temperature;BME280_humidity;BME280_pressure;Samples;Min_cycle;Max_cycle;Signal;HPM_P1;HPM_P2
2022/04/14 00:00:13;;;;;;;;;21.75;18.75;;;;;14.32;100.00;101710.66;5000061;28;45337;-85
2022/04/14 00:02:39;;;;;;;;;18.00;13.75;;;;;14.27;100.00;101722.63;4984395;28;46835;-85
2022/04/14 00:05:05;;;;;;;;;15.25;14.25;;;;;14.23;100.00;101726.47;5000067;28;44687;-85
2022/04/14 00:07:31;;;;;;;;;14.25;13.00;;;;;14.21;100.00;101725.69;5001105;28;44767;-84
2022/04/14 00:09:56;;;;;;;;;13.25;13.25;;;;;14.20;100.00;101721.31;4985029;28;44836;-85
2022/04/14 00:12:22;;;;;;;;;19.50;15.25;;;;;14.22;100.00;101711.38;4992080;28;46137;-86
2022/04/14 00:14:50;;;;;;;;;22.75;19.50;;;;;14.21;100.00;101717.66;5013173;28;45481;-86
2022/04/14 00:17:16;;;;;;;;;18.50;16.25;;;;;14.14;100.00;101718.09;5001995;28;45374;-84
2022/04/14 00:19:42;;;;;;;;;19.75;15.25;;;;;14.11;100.00;101720.94;4981181;28;45033;-84
2022/04/14 00:22:35;;;;;;;;;23.75;20.25;;;;;14.09;100.00;101711.34;4999640;28;45344;-84
2022/04/14 00:25:43;;;;;;;;;22.80;19.00;;;;;14.06;100.00;101709.72;5001426;28;45200;-85
2022/04/14 00:28:08;;;;;;;;;16.25;16.25;;;;;14.02;100.00;101716.25;5014258;28;44869;-83
2022/04/14 00:30:34;;;;;;;;;23.75;19.75;;;;;14.01;100.00;101717.16;5016584;28;45389;-83
2022/04/14 00:33:01;;;;;;;;;18.50;15.00;;;;;13.99;100.00;101718.25;5008369;28;46597;-84
2022/04/14 00:35:27;;;;;;;;;19.40;14.20;;;;;13.99;100.00;101716.44;5005912;28;44819;-83
2022/04/14 00:37:52;;;;;;;;;12.25;11.00;;;;;13.99;100.00;101720.91;5005597;28;44875;-84
2022/04/14 00:40:18;;;;;;;;;18.50;16.25;;;;;13.99;100.00;101708.41;5008356;28;44939;-83
2022/04/14 00:42:45;;;;;;;;;13.00;11.50;;;;;13.96;100.00;101711.28;5023633;28;45248;-84
2022/04/14 00:45:10;;;;;;;;;20.60;18.60;;;;;13.96;100.00;101705.06;5027452;28;44561;-84
2022/04/14 00:47:36;;;;;;;;;18.75;16.00;;;;;13.94;100.00;101707.00;4993076;28;44739;-85
2022/04/14 00:50:06;;;;;;;;;20.00;18.00;;;;;13.87;100.00;101709.19;5024897;28;44854;-85
2022/04/14 00:52:31;;;;;;;;;16.00;14.75;;;;;13.77;100.00;101703.59;5005965;28;45081;-84
2022/04/14 00:55:00;;;;;;;;;20.50;15.50;;;;;13.73;100.00;101712.78;5027249;28;44818;-84
2022/04/14 00:57:25;;;;;;;;;22.00;16.00;;;;;13.71;100.00;101711.16;5030595;28;44976;-85
2022/04/14 00:59:51;;;;;;;;;18.25;15.75;;;;;13.70;100.00;101722.81;5032315;28;44762;-84
2022/04/14 01:12:33;;;;;;;;;17.50;16.75;;;;;13.58;100.00;101727.09;4941918;28;45386;-83
2022/04/14 01:15:14;;;;;;;;;21.50;18.50;;;;;13.59;100.00;101712.81;4941681;28;47343;-84
2022/04/14 01:17:58;;;;;;;;;22.00;22.00;;;;;13.56;100.00;101727.22;4943090;28;44878;-83
2022/04/14 01:20:38;;;;;;;;;17.50;17.50;;;;;13.59;100.00;101729.69;4925545;28;44800;-84
2022/04/14 01:23:08;;;;;;;;;17.25;15.00;;;;;13.58;100.00;101721.75;4940789;28;45389;-85
2022/04/14 01:25:58;;;;;;;;;23.00;22.75;;;;;13.63;100.00;101730.34;4936775;28;45413;-84
2022/04/14 01:28:29;;;;;;;;;21.00;19.60;;;;;13.65;100.00;101735.59;4928307;28;44820;-85
2022/04/14 01:31:13;;;;;;;;;22.25;18.50;;;;;13.63;100.00;101735.66;4944563;28;45331;-85
2022/04/14 01:33:52;;;;;;;;;26.25;19.00;;;;;13.64;100.00;101729.41;4940563;28;44984;-85
2022/04/14 01:36:21;;;;;;;;;21.50;19.50;;;;;13.65;100.00;101731.13;4937803;28;46915;-85
2022/04/14 01:39:05;;;;;;;;;20.80;18.00;;;;;13.64;100.00;101737.41;4923148;28;45576;-84
2022/04/14 01:42:04;;;;;;;;;21.75;19.00;;;;;13.62;100.00;101739.31;4905170;28;45559;-85
2022/04/14 01:45:17;;;;;;;;;19.75;19.75;;;;;13.59;100.00;101735.03;4911225;28;45687;-84
2022/04/14 01:47:45;;;;;;;;;18.75;15.00;;;;;13.57;100.00;101742.25;5000422;28;47120;-84
2022/04/14 01:50:26;;;;;;;;;18.25;16.50;;;;;13.56;100.00;101729.88;4999680;28;44748;-83
2022/04/14 01:52:58;;;;;;;;;24.00;20.25;;;;;13.57;100.00;101736.94;4990209;28;45318;-83
2022/04/14 01:55:34;;;;;;;;;18.25;18.25;;;;;13.52;100.00;101731.03;4992025;28;44854;-84
2022/04/14 01:57:59;;;;;;;;;20.25;18.50;;;;;13.57;100.00;101736.06;5007168;28;46979;-85
2022/04/14 02:00:26;;;;;;;;;23.50;20.50;;;;;13.55;100.00;101730.00;4990674;28;44754;-85
2022/04/14 02:02:53;;;;;;;;;19.75;18.75;;;;;13.53;100.00;101727.38;5013884;28;45330;-84
2022/04/14 02:05:21;;;;;;;;;24.25;21.25;;;;;13.50;100.00;101721.41;5019058;28;45286;-84
2022/04/14 02:07:49;;;;;;;;;20.75;19.50;;;;;13.48;100.00;101721.50;5003109;28;46612;-84
2022/04/14 02:10:18;;;;;;;;;21.00;18.40;;;;;13.44;100.00;101728.00;5019016;28;45023;-84
2022/04/14 02:12:49;;;;;;;;;20.75;19.50;;;;;13.38;100.00;101721.22;5023878;28;44875;-84
2022/04/14 02:16:04;;;;;;;;;24.25;20.25;;;;;13.35;100.00;101718.75;5005678;28;45443;-84
2022/04/14 02:19:09;;;;;;;;;;;;;;;;;;;;;
2022/04/14 02:21:54;;;;;;;;;19.75;18.00;;;;;13.24;100.00;101712.34;5026087;28;71920;-84
2022/04/14 02:24:27;;;;;;;;;24.75;22.75;;;;;13.21;100.00;101721.41;5024735;28;44863;-86
2022/04/14 02:27:08;;;;;;;;;21.50;20.75;;;;;13.21;100.00;101712.53;5009224;28;44831;-84
2022/04/14 02:29:46;;;;;;;;;31.00;24.25;;;;;13.17;100.00;101713.69;5010001;28;46979;-85
2022/04/14 02:32:14;;;;;;;;;27.00;22.50;;;;;13.16;100.00;101718.16;5024080;28;44640;-85
2022/04/14 02:34:44;;;;;;;;;23.25;22.50;;;;;13.13;100.00;101713.84;5001030;28;44780;-84
2022/04/14 02:37:14;;;;;;;;;29.00;22.25;;;;;13.11;100.00;101722.91;5017137;28;45182;-85
2022/04/14 02:39:50;;;;;;;;;21.25;18.25;;;;;13.07;100.00;101724.06;5019095;28;45420;-84
2022/04/14 02:42:22;;;;;;;;;29.75;24.00;;;;;13.09;100.00;101727.47;5017012;28;45338;-84
2022/04/14 02:44:50;;;;;;;;;25.00;21.00;;;;;13.06;100.00;101733.88;5019838;28;44766;-85
2022/04/14 02:47:18;;;;;;;;;18.50;18.50;;;;;13.05;100.00;101736.63;5020693;28;45290;-85
2022/04/14 02:49:53;;;;;;;;;21.25;21.25;;;;;13.09;100.00;101740.81;5030162;28;45350;-83
2022/04/14 02:52:19;;;;;;;;;25.25;23.75;;;;;13.09;100.00;101732.81;5026394;28;44690;-83
2022/04/14 02:54:45;;;;;;;;;24.00;23.00;;;;;13.09;100.00;101731.00;5004671;28;44807;-83
2022/04/14 02:57:11;;;;;;;;;23.50;22.00;;;;;13.09;100.00;101728.34;5008499;28;44798;-84
2022/04/14 02:59:37;;;;;;;;;28.00;24.00;;;;;13.07;100.00;101732.91;5030935;28;46675;-84
2022/04/14 03:02:03;;;;;;;;;22.00;19.75;;;;;13.06;100.00;101725.00;5034060;28;44794;-84
2022/04/14 03:04:34;;;;;;;;;28.75;25.75;;;;;13.09;100.00;101732.81;5025708;28;45499;-83
2022/04/14 03:07:03;;;;;;;;;20.50;19.00;;;;;13.08;100.00;101737.28;5022501;28;44680;-84
2022/04/14 03:09:29;;;;;;;;;34.50;25.00;;;;;13.13;100.00;101731.69;5002257;28;45326;-83
2022/04/14 03:11:54;;;;;;;;;24.50;22.25;;;;;13.15;100.00;101729.78;5021948;28;45320;-84
2022/04/14 03:14:20;;;;;;;;;21.50;21.50;;;;;13.15;100.00;101732.47;5025345;28;45355;-84
2022/04/14 03:16:46;;;;;;;;;25.75;24.25;;;;;13.11;100.00;101728.25;5024357;28;44865;-84
2022/04/14 03:19:11;;;;;;;;;30.50;24.00;;;;;13.11;100.00;101726.44;5022795;28;46544;-84
2022/04/14 03:21:39;;;;;;;;;25.75;25.25;;;;;13.11;100.00;101722.91;5020791;28;45382;-84
2022/04/14 03:24:05;;;;;;;;;25.75;25.50;;;;;13.07;100.00;101729.41;5026663;28;44965;-83
2022/04/14 03:26:34;;;;;;;;;25.75;22.75;;;;;13.02;100.00;101734.16;5027201;28;45042;-82
2022/04/14 03:29:02;;;;;;;;;20.50;20.00;;;;;13.00;100.00;101736.91;5028031;28;46589;-85
2022/04/14 03:31:31;;;;;;;;;25.75;21.00;;;;;12.95;100.00;101733.66;5034755;28;44705;-84
2022/04/14 03:34:06;;;;;;;;;27.00;25.00;;;;;12.94;100.00;101747.94;5016147;28;44736;-83
2022/04/14 03:36:31;;;;;;;;;23.50;23.25;;;;;12.94;100.00;101752.44;5020871;28;44949;-86
2022/04/14 03:38:57;;;;;;;;;25.00;23.25;;;;;12.93;100.00;101756.06;5037765;28;45314;-85
2022/04/14 03:41:24;;;;;;;;;23.50;21.00;;;;;12.90;100.00;101748.22;5023279;28;44747;-86
2022/04/14 03:43:49;;;;;;;;;27.25;24.75;;;;;12.89;100.00;101754.50;5017827;28;44811;-85
2022/04/14 03:46:15;;;;;;;;;24.25;22.50;;;;;12.85;100.00;101743.16;5018739;28;44749;-84
2022/04/14 03:48:44;;;;;;;;;20.00;20.00;;;;;12.85;100.00;101749.34;5000840;28;46653;-84
2022/04/14 03:51:10;;;;;;;;;24.25;24.00;;;;;12.82;100.00;101756.69;5018147;28;44737;-85
2022/04/14 03:53:43;;;;;;;;;25.00;21.00;;;;;12.80;100.00;101754.09;5018530;28;44825;-84
2022/04/14 03:56:18;;;;;;;;;15.50;9.50;;;;;12.77;100.00;101748.97;5019929;28;45255;-84
2022/04/14 03:58:44;;;;;;;;;28.75;21.75;;;;;12.78;100.00;101752.50;5022240;28;45448;-84
2022/04/14 04:01:11;;;;;;;;;28.50;22.25;;;;;12.74;100.00;101746.47;5012058;28;45040;-85
2022/04/14 04:03:39;;;;;;;;;22.75;21.75;;;;;12.71;100.00;101762.66;5029064;28;45293;-83
2022/04/14 04:06:05;;;;;;;;;30.25;27.00;;;;;12.69;100.00;101764.56;5001537;28;45416;-85
2022/04/14 04:08:30;;;;;;;;;29.25;29.25;;;;;12.67;100.00;101765.59;5002118;28;45359;-85
2022/04/14 04:10:56;;;;;;;;;31.25;26.00;;;;;12.66;100.00;101772.72;5018771;28;45222;-84
2022/04/14 04:13:22;;;;;;;;;28.75;28.50;;;;;12.65;100.00;101775.50;5019599;28;44833;-84
2022/04/14 04:15:50;;;;;;;;;34.00;29.33;;;;;12.64;100.00;101769.31;5018244;28;44914;-84
2022/04/14 04:18:15;;;;;;;;;28.75;28.25;;;;;12.64;100.00;101763.97;5016304;28;47042;-84
2022/04/14 04:20:41;;;;;;;;;29.75;28.25;;;;;12.64;100.00;101769.31;5018556;28;44794;-85
2022/04/14 04:23:16;;;;;;;;;31.25;30.00;;;;;12.65;100.00;101772.84;5021659;28;45207;-85
2022/04/14 04:25:42;;;;;;;;;25.33;23.67;;;;;12.64;100.00;101757.78;5020341;28;45571;-84
2022/04/14 04:28:14;;;;;;;;;32.33;27.33;;;;;12.63;100.00;101758.75;5003357;28;46586;-85
2022/04/14 04:30:40;;;;;;;;;29.25;27.25;;;;;12.61;100.00;101750.81;5024184;28;45496;-85
2022/04/14 04:33:06;;;;;;;;;31.25;27.75;;;;;12.58;100.00;101753.69;5008041;28;45347;-84
2022/04/14 04:35:31;;;;;;;;;25.25;25.25;;;;;12.56;100.00;101751.09;5017132;28;45263;-84
2022/04/14 04:37:57;;;;;;;;;25.50;25.50;;;;;12.50;100.00;101745.28;5016986;28;46544;-84
2022/04/14 04:40:23;;;;;;;;;28.50;25.50;;;;;12.50;100.00;101754.13;5017892;28;45389;-83
2022/04/14 04:58:30;;;;;;;;;31.33;28.33;;;;;12.27;100.00;101811.41;4755329;29;44906;-86
2022/04/14 05:19:26;;;;;;;;;;;;;;;;;;;;;
2022/04/14 05:29:43;;;;;;;;;27.75;27.00;;;;;12.34;100.00;101801.28;4692156;30;44810;-87
2022/04/14 05:33:11;;;;;;;;;29.00;29.00;;;;;12.33;100.00;101792.44;4731619;30;45210;-86
2022/04/14 06:03:26;;;;;;;;;44.25;37.00;;;;;13.40;100.00;101811.88;4827831;29;45294;-88
2022/04/14 06:09:22;;;;;;;;;32.50;30.25;;;;;13.94;100.00;101814.72;4810019;29;45253;-87
2022/04/14 06:11:47;;;;;;;;;41.25;33.75;;;;;14.08;100.00;101806.69;4839459;29;45200;-89
2022/04/14 06:21:08;;;;;;;;;36.00;33.00;;;;;14.75;100.00;101804.09;4816280;29;44970;-88
2022/04/14 06:23:33;;;;;;;;;30.75;29.00;;;;;14.97;100.00;101805.28;4799705;29;45357;-85
2022/04/14 06:25:58;;;;;;;;;35.50;33.50;;;;;15.18;100.00;101795.75;4813380;29;45364;-85
2022/04/14 06:28:24;;;;;;;;;33.00;31.00;;;;;15.36;100.00;101794.50;4797914;29;44850;-87
2022/04/14 06:30:51;;;;;;;;;38.50;34.25;;;;;15.56;100.00;101798.44;4810942;29;45728;-87
2022/04/14 06:33:18;;;;;;;;;37.50;33.75;;;;;15.67;100.00;101790.53;4814063;29;45286;-85
2022/04/14 06:35:44;;;;;;;;;38.50;36.00;;;;;15.78;100.00;101795.13;4819245;29;44849;-87
2022/04/14 06:38:10;;;;;;;;;41.50;35.25;;;;;15.91;100.00;101798.63;4804363;29;44761;-86
2022/04/14 06:40:35;;;;;;;;;35.50;33.50;;;;;16.12;100.00;101804.25;4814340;29;45380;-88
2022/04/14 06:43:02;;;;;;;;;43.75;34.25;;;;;16.25;100.00;101801.53;4835796;29;46634;-86
2022/04/14 06:45:31;;;;;;;;;36.00;35.00;;;;;16.16;100.00;101810.25;4847919;29;44774;-88
2022/04/14 06:47:57;;;;;;;;;41.50;35.50;;;;;16.07;100.00;101814.47;4888490;29;44832;-86
2022/04/14 06:50:22;;;;;;;;;10.50;7.75;;;;;16.11;100.00;101810.59;4906238;28;45540;-87
2022/04/14 06:52:48;;;;;;;;;33.00;32.75;;;;;16.09;100.00;101815.19;4889222;29;45358;-87
2022/04/14 06:55:15;;;;;;;;;41.67;34.67;;;;;16.03;100.00;101806.75;4904474;28;44737;-87
2022/04/14 06:57:45;;;;;;;;;42.75;37.00;;;;;15.99;100.00;101813.28;4939087;28;44788;-87
2022/04/14 07:00:11;;;;;;;;;35.75;32.50;;;;;16.01;100.00;101814.06;4956188;28;44939;-87
2022/04/14 07:02:48;;;;;;;;;39.25;35.25;;;;;16.08;100.00;101815.31;4990683;28;46985;-86
2022/04/14 07:05:14;;;;;;;;;40.67;36.33;;;;;16.06;100.00;101809.22;4995098;28;44912;-85
2022/04/14 07:07:39;;;;;;;;;42.00;37.00;;;;;16.03;100.00;101814.78;4993709;28;44747;-86
2022/04/14 07:10:05;;;;;;;;;45.00;38.00;;;;;15.88;100.00;101816.75;4970016;28;44808;-87
2022/04/14 07:12:30;;;;;;;;;53.00;43.33;;;;;15.55;100.00;101817.31;4985913;28;45081;-87
2022/04/14 07:14:56;;;;;;;;;56.00;43.00;;;;;15.42;100.00;101818.19;4963505;28;45316;-87
2022/04/14 07:17:22;;;;;;;;;49.67;38.00;;;;;15.41;100.00;101823.63;4981847;28;45353;-85
2022/04/14 07:19:48;;;;;;;;;41.67;37.67;;;;;15.50;100.00;101828.34;4982600;28;44875;-87
2022/04/14 07:22:18;;;;;;;;;49.67;40.33;;;;;15.48;100.00;101829.44;4999783;28;45155;-87
2022/04/14 07:24:50;;;;;;;;;48.33;40.33;;;;;15.34;100.00;101830.38;4999062;28;45291;-87
2022/04/14 07:27:19;;;;;;;;;50.00;40.33;;;;;15.32;100.00;101830.47;5006627;28;44847;-86
2022/04/14 07:29:48;;;;;;;;;50.00;41.33;;;;;15.41;100.00;101829.84;5002234;28;45465;-87
2022/04/14 07:32:14;;;;;;;;;41.67;37.67;;;;;15.35;100.00;101835.63;5003004;28;46970;-87
2022/04/14 07:34:40;;;;;;;;;47.33;41.00;;;;;15.30;100.00;101831.56;5028017;28;45339;-87
2022/04/14 07:37:05;;;;;;;;;42.00;39.00;;;;;15.32;100.00;101841.19;5037853;28;44691;-89
2022/04/14 07:39:31;;;;;;;;;41.50;38.00;;;;;15.30;100.00;101840.44;5008599;28;45008;-84
2022/04/14 07:41:57;;;;;;;;;44.00;38.00;;;;;15.36;100.00;101833.78;5015933;28;46793;-87
2022/04/14 07:44:23;;;;;;;;;48.67;38.67;;;;;15.42;100.00;101844.06;5032779;28;44660;-87
2022/04/14 07:46:48;;;;;;;;;34.00;28.33;;;;;15.55;100.00;101833.38;5013017;28;44896;-86
2022/04/14 07:49:13;;;;;;;;;49.67;41.00;;;;;15.72;100.00;101837.59;5027147;28;44971;-87
2022/04/14 07:51:40;;;;;;;;;43.00;37.33;;;;;15.79;100.00;101841.53;5025945;28;45477;-86
2022/04/14 07:54:06;;;;;;;;;44.67;38.67;;;;;15.97;100.00;101844.72;5022068;28;44687;-86
2022/04/14 07:56:31;;;;;;;;;39.25;36.50;;;;;16.12;100.00;101841.78;5002074;28;45388;-86
2022/04/14 07:58:57;;;;;;;;;35.00;32.75;;;;;16.24;100.00;101842.69;5021201;28;45287;-86
2022/04/14 08:01:24;;;;;;;;;30.50;28.75;;;;;16.26;100.00;101840.78;5002579;28;46617;-87
2022/04/14 08:03:51;;;;;;;;;35.75;32.50;;;;;16.36;100.00;101841.81;5019304;28;45156;-87
2022/04/14 08:06:17;;;;;;;;;38.50;32.50;;;;;16.56;100.00;101839.47;4983618;28;44841;-86
2022/04/14 08:08:42;;;;;;;;;36.00;33.00;;;;;16.67;100.00;101837.69;5000047;28;44802;-87
2022/04/14 08:11:11;;;;;;;;;37.75;33.50;;;;;16.67;100.00;101837.69;5002935;28;46847;-86
2022/04/14 08:13:38;;;;;;;;;42.00;37.00;;;;;16.66;100.00;101840.50;5000059;28;44803;-87
2022/04/14 08:16:08;;;;;;;;;42.33;33.67;;;;;16.63;100.00;101836.25;5006106;28;44730;-86
2022/04/14 08:18:38;;;;;;;;;37.75;33.75;;;;;16.69;100.00;101837.59;5002339;28;45472;-87
2022/04/14 08:21:04;;;;;;;;;48.25;36.75;;;;;16.90;100.00;101841.38;5009212;28;45337;-87
2022/04/14 08:23:31;;;;;;;;;46.00;38.00;;;;;17.15;100.00;101832.28;5001837;28;45235;-86
2022/04/14 08:25:57;;;;;;;;;39.67;33.00;;;;;17.25;100.00;101837.78;5003653;28;44666;-87
2022/04/14 08:28:22;;;;;;;;;44.00;36.00;;;;;17.30;100.00;101835.59;5001237;28;45220;-88
2022/04/14 08:30:48;;;;;;;;;40.50;35.25;;;;;17.44;100.00;101837.22;5000293;28;46142;-87
2022/04/14 08:33:16;;;;;;;;;40.33;36.33;;;;;17.49;100.00;101837.72;4996874;28;45600;-87
2022/04/14 08:35:41;;;;;;;;;39.75;35.50;;;;;17.54;100.00;101838.19;5028852;28;44799;-88
2022/04/14 08:38:07;;;;;;;;;41.00;36.00;;;;;17.63;100.00;101842.00;5029836;28;44882;-86
2022/04/14 08:40:37;;;;;;;;;41.50;36.25;;;;;17.77;100.00;101851.69;5030348;28;45315;-86
2022/04/14 08:43:05;;;;;;;;;44.25;36.25;;;;;17.88;100.00;101847.16;5031931;28;44872;-85
2022/04/14 08:45:54;;;;;;;;;39.00;35.75;;;;;17.93;100.00;101842.28;5027520;28;44695;-86
2022/04/14 08:48:20;;;;;;;;;41.33;37.33;;;;;17.96;100.00;101838.50;4994168;28;44919;-86
2022/04/14 08:50:50;;;;;;;;;34.75;30.50;;;;;18.00;100.00;101839.97;5011693;28;45158;-86
2022/04/14 08:53:18;;;;;;;;;43.00;34.75;;;;;18.14;100.00;101833.47;5014289;28;45385;-85
2022/04/14 08:55:44;;;;;;;;;37.75;33.75;;;;;18.21;100.00;101835.50;5013696;28;44703;-84
2022/04/14 08:58:14;;;;;;;;;28.00;27.75;;;;;18.27;100.00;101839.53;5030622;28;44906;-86
2022/04/14 09:00:40;;;;;;;;;29.75;26.50;;;;;18.26;100.00;101832.44;5016818;28;45221;-87
2022/04/14 09:03:05;;;;;;;;;36.25;31.00;;;;;18.23;100.00;101833.56;5024859;28;44825;-87
2022/04/14 09:05:33;;;;;;;;;36.00;33.00;;;;;18.18;100.00;101832.22;5013277;28;44775;-88
2022/04/14 09:07:59;;;;;;;;;29.50;25.75;;;;;18.24;100.00;101834.41;4994324;28;44746;-89
2022/04/14 09:10:24;;;;;;;;;27.75;26.00;;;;;18.20;100.00;101831.13;4982058;28;46647;-89
2022/04/14 09:12:52;;;;;;;;;23.75;23.75;;;;;18.28;100.00;101835.03;5025220;28;44736;-90
2022/04/14 09:15:20;;;;;;;;;20.80;17.80;;;;;18.22;100.00;101834.53;4999388;28;44693;-88
2022/04/14 09:17:53;;;;;;;;;21.00;20.50;;;;;18.22;100.00;101834.53;5021776;28;44954;-90
2022/04/14 09:20:42;;;;;;;;;33.50;30.50;;;;;18.19;100.00;101833.94;5011426;28;45350;-88
2022/04/14 09:23:39;;;;;;;;;33.25;30.75;;;;;18.26;100.00;101837.81;5013564;28;44831;-90
2022/04/14 09:26:27;;;;;;;;;30.75;26.25;;;;;18.35;100.00;101837.09;4956879;28;45426;-89
2022/04/14 09:33:15;;;;;;;;;26.25;24.00;;;;;18.45;100.00;101837.19;4923823;28;44981;-90
2022/04/14 09:36:14;;;;;;;;;25.00;23.20;;;;;18.57;100.00;101844.25;4886124;29;44799;-90
2022/04/14 09:38:52;;;;;;;;;33.50;27.00;;;;;18.46;100.00;101839.72;4879922;29;44841;-87
2022/04/14 09:42:19;;;;;;;;;;;;;;;;;;;;;
2022/04/14 09:45:10;;;;;;;;;31.00;26.25;;;;;18.78;100.00;101835.38;4906043;29;74826;-87
2022/04/14 09:47:44;;;;;;;;;32.25;28.50;;;;;18.83;100.00;101839.41;4907397;29;45546;-87
2022/04/14 09:50:56;;;;;;;;;28.00;26.50;;;;;18.84;100.00;101824.94;4909884;29;44818;-87
2022/04/14 09:53:24;;;;;;;;;33.75;26.50;;;;;18.86;100.00;101825.69;4913425;28;45526;-88
2022/04/14 09:55:58;;;;;;;;;29.00;29.00;;;;;18.93;100.00;101828.69;4918787;28;46694;-87
2022/04/14 09:58:34;;;;;;;;;22.40;21.40;;;;;18.94;100.00;101825.00;4899973;29;44829;-86
2022/04/14 10:01:01;;;;;;;;;27.00;22.60;;;;;19.09;100.00;101821.00;4908142;29;45553;-87
2022/04/14 10:03:31;;;;;;;;;28.50;25.50;;;;;19.24;100.00;101822.41;4924543;28;45415;-87
2022/04/14 10:06:04;;;;;;;;;9.60;9.60;;;;;19.31;100.00;101824.56;4968100;28;45011;-88
2022/04/14 10:08:53;;;;;;;;;14.80;14.80;;;;;19.27;100.00;101822.13;4993548;28;44673;-88
2022/04/14 10:11:38;;;;;;;;;13.60;13.60;;;;;19.43;100.00;101827.03;5003562;28;44867;-87
2022/04/14 10:14:15;;;;;;;;;14.40;11.60;;;;;19.52;100.00;101831.63;5022880;28;45417;-87
2022/04/14 10:16:41;;;;;;;;;17.80;17.80;;;;;19.57;100.00;101820.44;5022521;28;45330;-88
2022/04/14 10:19:09;;;;;;;;;16.80;15.00;;;;;19.60;100.00;101820.22;5006322;28;44896;-88
2022/04/14 10:21:39;;;;;;;;;18.40;15.60;;;;;19.58;100.00;101819.47;5006252;28;45299;-86
2022/04/14 10:24:39;;;;;;;;;15.40;12.20;;;;;19.62;100.00;101820.06;5022188;28;44855;-88
2022/04/14 10:27:22;;;;;;;;;7.20;6.20;;;;;19.63;100.00;101819.94;5019902;28;46953;-89
2022/04/14 10:30:25;;;;;;;;;6.00;6.00;;;;;19.65;100.00;101811.72;5009982;28;45397;-87
2022/04/14 10:33:05;;;;;;;;;8.20;8.20;;;;;19.77;100.00;101810.63;5029516;28;44763;-89
2022/04/14 10:35:43;;;;;;;;;7.00;7.00;;;;;19.98;100.00;101803.31;5029506;28;44928;-89
2022/04/14 10:38:32;;;;;;;;;7.80;7.60;;;;;20.16;100.00;101799.94;5028297;28;45290;-89
2022/04/14 10:41:42;;;;;;;;;9.60;9.60;;;;;20.29;100.00;101804.09;5028253;28;44771;-90
2022/04/14 10:44:46;;;;;;;;;14.40;12.20;;;;;20.42;100.00;101808.38;5022853;28;45253;-91
2022/04/14 10:48:09;;;;;;;;;13.60;13.20;;;;;20.52;100.00;101807.41;5031160;28;44853;-90
2022/04/14 10:51:21;;;;;;;;;18.00;12.80;;;;;20.56;100.00;101799.03;4991976;28;46596;-89
2022/04/14 10:54:03;;;;;;;;;15.20;13.60;;;;;20.24;100.00;101798.25;4978819;28;44792;-89
2022/04/14 10:56:38;;;;;;;;;11.60;10.60;;;;;19.96;100.00;101802.59;4991248;28;44804;-89
2022/04/14 10:59:14;;;;;;;;;17.40;11.80;;;;;19.77;100.00;101810.63;4989322;28;44859;-90
2022/04/14 11:01:48;;;;;;;;;15.20;13.40;;;;;19.87;100.00;101805.25;4993127;28;45175;-88
2022/04/14 11:04:24;;;;;;;;;15.40;14.60;;;;;19.90;100.00;101805.84;4995634;28;44798;-90
2022/04/14 11:06:51;;;;;;;;;14.40;14.40;;;;;20.05;100.00;101798.22;4994988;28;44780;-89
2022/04/14 11:10:03;;;;;;;;;14.80;12.40;;;;;20.17;100.00;101802.53;4992039;28;44895;-89
2022/04/14 11:13:15;;;;;;;;;16.20;13.20;;;;;20.45;100.00;101800.84;4947474;28;45014;-90
2022/04/14 11:15:43;;;;;;;;;9.60;9.60;;;;;20.68;100.00;101797.88;4946201;28;44876;-90
2022/04/14 11:18:16;;;;;;;;;10.80;10.80;;;;;20.94;100.00;101803.56;4943470;28;44824;-91
2022/04/14 11:20:51;;;;;;;;;14.00;10.60;;;;;21.16;100.00;101797.81;4943913;28;44890;-90
2022/04/14 11:23:36;;;;;;;;;15.80;12.40;;;;;21.18;100.00;101803.09;4946229;28;45330;-91
2022/04/14 11:26:14;;;;;;;;;15.60;15.60;;;;;20.95;100.00;101795.31;4951946;28;45395;-89
2022/04/14 11:28:43;;;;;;;;;17.20;14.40;;;;;20.93;100.00;101815.34;4985731;28;44887;-90
2022/04/14 11:31:38;;;;;;;;;;;;;;;;;;;;;
2022/04/14 11:34:04;;;;;;;;;23.80;18.40;;;;;20.56;100.00;101804.44;4982007;28;74468;-90
2022/04/14 11:36:54;;;;;;;;;12.25;11.25;;;;;20.36;100.00;101796.31;4990194;28;44776;-87
2022/04/14 11:39:29;;;;;;;;;17.60;16.20;;;;;20.60;100.00;101798.63;4987042;28;44795;-89
2022/04/14 11:42:11;;;;;;;;;12.00;12.00;;;;;20.48;100.00;101803.28;4987542;28;45526;-89
2022/04/14 11:44:51;;;;;;;;;11.00;11.00;;;;;20.46;100.00;101794.47;4983119;28;46916;-89
2022/04/14 11:47:20;;;;;;;;;11.40;10.00;;;;;20.70;100.00;101801.31;5015097;22;44913;-90
2022/04/14 11:50:05;;;;;;;;;;;;;;;;;;;;;
2022/04/14 11:52:38;;;;;;;;;12.00;10.40;;;;;20.24;100.00;101805.50;5071549;28;68792;-90
2022/04/14 11:55:05;;;;;;;;;14.60;13.20;;;;;20.25;100.00;101802.66;5060920;28;45283;-90
2022/04/14 11:57:37;;;;;;;;;14.20;14.00;;;;;20.26;100.00;101796.28;5077225;28;45141;-89
2022/04/14 12:00:10;;;;;;;;;16.80;15.40;;;;;20.07;100.00;101792.72;5079084;28;44812;-90
2022/04/14 12:02:36;;;;;;;;;8.80;7.80;;;;;20.19;100.00;101794.28;5080212;28;44857;-90
2022/04/14 12:05:05;;;;;;;;;13.75;10.75;;;;;20.31;100.00;101792.28;5062793;28;45134;-89
2022/04/14 12:07:34;;;;;;;;;12.80;11.60;;;;;20.46;100.00;101801.72;5075684;28;44730;-90
2022/04/14 12:10:10;;;;;;;;;10.40;7.60;;;;;20.54;100.00;101797.31;5074678;28;44723;-89
2022/04/14 12:12:37;;;;;;;;;8.60;8.60;;;;;20.52;100.00;101787.66;5053459;28;44918;-88
2022/04/14 12:15:12;;;;;;;;;14.20;10.20;;;;;20.28;100.00;101794.28;5050827;28;45500;-90
2022/04/14 12:17:38;;;;;;;;;7.20;4.40;;;;;20.05;100.00;101803.59;5070282;28;44916;-90
2022/04/14 12:20:05;;;;;;;;;8.60;7.80;;;;;20.08;100.00;101797.94;5059831;28;44762;-91
2022/04/14 12:22:34;;;;;;;;;16.60;8.60;;;;;20.08;100.00;101791.72;5071404;28;44917;-89
2022/04/14 12:25:04;;;;;;;;;17.40;15.40;;;;;20.07;100.00;101798.09;5069261;28;44805;-90
2022/04/14 12:27:39;;;;;;;;;17.40;13.40;;;;;20.20;100.00;101798.66;5051601;28;45234;-89
2022/04/14 12:30:10;;;;;;;;;11.00;9.60;;;;;20.25;100.00;101789.16;5069832;28;45351;-89
2022/04/14 12:32:37;;;;;;;;;8.00;7.20;;;;;20.44;100.00;101784.78;5067109;28;45341;-90
2022/04/14 12:35:08;;;;;;;;;6.80;6.80;;;;;20.73;100.00;101782.09;5065912;28;45251;-90
2022/04/14 12:37:45;;;;;;;;;7.60;7.40;;;;;20.88;98.54;101780.66;5049903;28;45257;-88
2022/04/14 12:40:16;;;;;;;;;9.40;6.20;;;;;21.05;98.61;101770.97;5069245;28;44722;-89
2022/04/14 12:42:43;;;;;;;;;7.60;7.60;;;;;21.39;98.14;101782.16;5054545;28;44864;-90
2022/04/14 12:45:13;;;;;;;;;8.80;7.60;;;;;21.66;100.00;101769.66;5052381;28;45177;-90
2022/04/14 12:47:49;;;;;;;;;7.40;5.20;;;;;21.75;95.00;101769.59;5064190;28;44746;-89
2022/04/14 12:50:20;;;;;;;;;6.00;6.00;;;;;21.85;92.36;101771.41;5049148;28;44743;-90
2022/04/14 12:52:56;;;;;;;;;4.00;4.00;;;;;22.05;91.05;101784.69;5068055;28;44777;-90
2022/04/14 12:55:27;;;;;;;;;3.00;3.00;;;;;21.83;90.26;101778.84;5053524;28;45249;-90
2022/04/14 12:58:15;;;;;;;;;4.80;4.80;;;;;21.48;92.37;101785.84;5047557;28;44840;-89
2022/04/14 13:00:41;;;;;;;;;8.40;6.00;;;;;21.41;93.15;101785.56;5036493;28;44803;-90
2022/04/14 13:03:16;;;;;;;;;6.20;4.40;;;;;21.28;93.11;101785.88;5049153;28;44918;-89
2022/04/14 13:05:43;;;;;;;;;4.00;4.00;;;;;21.21;90.83;101779.31;5049531;28;45407;-88
2022/04/14 13:08:29;;;;;;;;;3.80;3.80;;;;;21.17;93.50;101777.06;5065731;28;44724;-88